sensor_id;sensor_type;location;lat;lon;timestamp;pressure;altitude;pressure_sealevel;temperature;humidity
13968;BME280;39536;52.198;9.920;2022-12-29T00:01:26;99484.81;;;9.90;100.00
13968;BME280;39536;52.198;9.920;2022-12-29T00:03:53;99480.44;;;9.90;100.00
13968;BME280;39536;52.198;9.920;2022-12-29T00:06:19;99475.34;;;9.89;100.00
13968;BME280;39536;52.198;9.920;2022-12-29T00:08:46;99477.00;;;9.90;100.00
13968;BME280;39536;52.198;9.920;2022-12-29T00:11:15;99471.75;;;9.91;100.00
13968;BME280;39536;52.198;9.920;2022-12-29T00:13:42;99473.38;;;9.94;100.00
13968;BME280;39536;52.198;9.920;2022-12-29T00:16:28;99469.91;;;9.93;100.00
13968;BME280;39536;52.198;9.920;2022-12-29T00:18:55;99471.06;;;9.88;100.00
13968;BME280;39536;52.198;9.920;2022-12-29T00:21:23;99490.38;;;10.01;100.00
13968;BME280;39536;52.198;9.920;2022-12-29T00:24:10;99477.38;;;10.01;100.00
13968;BME280;39536;52.198;9.920;2022-12-29T00:26:58;99472.84;;;10.05;100.00
13968;BME280;39536;52.198;9.920;2022-12-29T00:29:57;99473.50;;;10.10;100.00
13968;BME280;39536;52.198;9.920;2022-12-29T00:32:43;99479.19;;;9.99;100.00
13968;BME280;39536;52.198;9.920;2022-12-29T00:35:29;99481.44;;;10.07;100.00
13968;BME280;39536;52.198;9.920;2022-12-29T00:37:58;99468.19;;;10.11;100.00
13968;BME280;39536;52.198;9.920;2022-12-29T00:40:45;99466.44;;;10.12;100.00
13968;BME280;39536;52.198;9.920;2022-12-29T00:43:28;99466.28;;;10.15;100.00
13968;BME280;39536;52.198;9.920;2022-12-29T00:46:12;99454.28;;;10.12;100.00
13968;BME280;39536;52.198;9.920;2022-12-29T00:48:40;99455.66;;;10.20;100.00
13968;BME280;39536;52.198;9.920;2022-12-29T00:51:25;99459.56;;;10.11;100.00
13968;BME280;39536;52.198;9.920;2022-12-29T00:53:51;99462.09;;;10.12;100.00
13968;BME280;39536;52.198;9.920;2022-12-29T00:56:18;99457.78;;;10.11;100.00
13968;BME280;39536;52.198;9.920;2022-12-29T00:58:44;99462.25;;;10.09;100.00
13968;BME280;39536;52.198;9.920;2022-12-29T01:01:11;99449.16;;;10.11;100.00
13968;BME280;39536;52.198;9.920;2022-12-29T01:03:38;99457.59;;;10.16;100.00
13968;BME280;39536;52.198;9.920;2022-12-29T01:06:07;99455.81;;;10.16;100.00
13968;BME280;39536;52.198;9.920;2022-12-29T01:08:34;99445.84;;;10.25;100.00
13968;BME280;39536;52.198;9.920;2022-12-29T01:11:03;99430.34;;;10.23;100.00
13968;BME280;39536;52.198;9.920;2022-12-29T01:13:28;99445.94;;;10.23;100.00
13968;BME280;39536;52.198;9.920;2022-12-29T01:15:56;99446.16;;;10.18;100.00
13968;BME280;39536;52.198;9.920;2022-12-29T01:18:23;99440.41;;;10.12;100.00
13968;BME280;39536;52.198;9.920;2022-12-29T01:20:50;99437.06;;;10.10;100.00
13968;BME280;39536;52.198;9.920;2022-12-29T01:23:18;99438.75;;;10.11;100.00
13968;BME280;39536;52.198;9.920;2022-12-29T01:25:44;99436.91;;;10.13;100.00
13968;BME280;39536;52.198;9.920;2022-12-29T01:28:11;99428.19;;;10.14;100.00
13968;BME280;39536;52.198;9.920;2022-12-29T01:30:38;99416.84;;;10.15;100.00
13968;BME280;39536;52.198;9.920;2022-12-29T01:33:04;99421.59;;;10.07;100.00
13968;BME280;39536;52.198;9.920;2022-12-29T01:35:31;99413.16;;;10.02;100.00
13968;BME280;39536;52.198;9.920;2022-12-29T01:37:58;99407.81;;;10.05;100.00
13968;BME280;39536;52.198;9.920;2022-12-29T01:40:25;99412.19;;;10.04;100.00
13968;BME280;39536;52.198;9.920;2022-12-29T01:42:53;99404.13;;;10.09;100.00
13968;BME280;39536;52.198;9.920;2022-12-29T01:45:20;99385.19;;;10.07;100.00
13968;BME280;39536;52.198;9.920;2022-12-29T01:47:50;99401.00;;;10.02;100.00
13968;BME280;39536;52.198;9.920;2022-12-29T01:50:20;99387.16;;;10.02;100.00
13968;BME280;39536;52.198;9.920;2022-12-29T01:52:54;99399.72;;;10.11;100.00
13968;BME280;39536;52.198;9.920;2022-12-29T01:55:23;99388.66;;;10.06;100.00
13968;BME280;39536;52.198;9.920;2022-12-29T01:57:53;99388.75;;;10.04;100.00
13968;BME280;39536;52.198;9.920;2022-12-29T02:00:21;99370.47;;;10.06;100.00
13968;BME280;39536;52.198;9.920;2022-12-29T02:02:50;99370.94;;;10.14;100.00
13968;BME280;39536;52.198;9.920;2022-12-29T02:05:23;99380.56;;;10.12;100.00
13968;BME280;39536;52.198;9.920;2022-12-29T02:07:51;99370.00;;;10.15;100.00
13968;BME280;39536;52.198;9.920;2022-12-29T02:10:20;99370.47;;;10.23;100.00
13968;BME280;39536;52.198;9.920;2022-12-29T02:12:47;99364.84;;;10.32;100.00
13968;BME280;39536;52.198;9.920;2022-12-29T02:15:16;99360.41;;;10.34;100.00
13968;BME280;39536;52.198;9.920;2022-12-29T02:18:01;99359.34;;;10.38;100.00
13968;BME280;39536;52.198;9.920;2022-12-29T02:23:46;99360.53;;;10.49;100.00
13968;BME280;39536;52.198;9.920;2022-12-29T02:26:34;99362.22;;;10.50;100.00
13968;BME280;39536;52.198;9.920;2022-12-29T02:29:21;99354.50;;;10.48;100.00
13968;BME280;39536;52.198;9.920;2022-12-29T02:32:01;99348.97;;;10.54;100.00
13968;BME280;39536;52.198;9.920;2022-12-29T02:34:43;99345.28;;;10.58;100.00
13968;BME280;39536;52.198;9.920;2022-12-29T02:37:20;99346.81;;;10.62;100.00
13968;BME280;39536;52.198;9.920;2022-12-29T02:39:55;99351.78;;;10.67;100.00
13968;BME280;39536;52.198;9.920;2022-12-29T02:42:29;99357.81;;;10.68;100.00
13968;BME280;39536;52.198;9.920;2022-12-29T02:45:03;99358.44;;;10.55;100.00
13968;BME280;39536;52.198;9.920;2022-12-29T02:47:36;99363.28;;;10.63;100.00
13968;BME280;39536;52.198;9.920;2022-12-29T02:50:08;99354.03;;;10.57;100.00
13968;BME280;39536;52.198;9.920;2022-12-29T02:52:40;99366.94;;;10.59;100.00
13968;BME280;39536;52.198;9.920;2022-12-29T02:55:10;99353.03;;;10.60;100.00
13968;BME280;39536;52.198;9.920;2022-12-29T02:57:36;99357.19;;;10.47;100.00
13968;BME280;39536;52.198;9.920;2022-12-29T03:00:07;99353.50;;;10.51;100.00
13968;BME280;39536;52.198;9.920;2022-12-29T03:03:04;99343.16;;;10.49;100.00
13968;BME280;39536;52.198;9.920;2022-12-29T03:05:45;99354.41;;;10.50;100.00
13968;BME280;39536;52.198;9.920;2022-12-29T03:08:22;99348.72;;;10.59;100.00
13968;BME280;39536;52.198;9.920;2022-12-29T03:10:59;99351.47;;;10.56;100.00
13968;BME280;39536;52.198;9.920;2022-12-29T03:13:34;99348.03;;;10.55;100.00
13968;BME280;39536;52.198;9.920;2022-12-29T03:16:23;99341.00;;;10.57;100.00
13968;BME280;39536;52.198;9.920;2022-12-29T03:18:57;99335.28;;;10.51;100.00
13968;BME280;39536;52.198;9.920;2022-12-29T03:21:32;99345.69;;;10.51;100.00
13968;BME280;39536;52.198;9.920;2022-12-29T03:24:22;99338.88;;;10.48;100.00
13968;BME280;39536;52.198;9.920;2022-12-29T03:26:53;99333.66;;;10.48;100.00
13968;BME280;39536;52.198;9.920;2022-12-29T03:29:21;99337.09;;;10.49;100.00
13968;BME280;39536;52.198;9.920;2022-12-29T03:31:48;99326.78;;;10.47;100.00
13968;BME280;39536;52.198;9.920;2022-12-29T03:34:20;99319.19;;;10.43;100.00
13968;BME280;39536;52.198;9.920;2022-12-29T03:36:52;99317.13;;;10.49;100.00
13968;BME280;39536;52.198;9.920;2022-12-29T03:39:21;99327.47;;;10.51;100.00
13968;BME280;39536;52.198;9.920;2022-12-29T03:41:51;99307.31;;;10.54;100.00
13968;BME280;39536;52.198;9.920;2022-12-29T03:44:21;99305.53;;;10.55;100.00
13968;BME280;39536;52.198;9.920;2022-12-29T03:46:47;99314.28;;;10.54;100.00
13968;BME280;39536;52.198;9.920;2022-12-29T03:49:14;99314.88;;;10.59;100.00
13968;BME280;39536;52.198;9.920;2022-12-29T03:51:42;99304.59;;;10.56;100.00
13968;BME280;39536;52.198;9.920;2022-12-29T03:54:08;99299.66;;;10.51;100.00
13968;BME280;39536;52.198;9.920;2022-12-29T03:56:35;99303.78;;;10.55;100.00
13968;BME280;39536;52.198;9.920;2022-12-29T03:59:01;99304.94;;;10.50;100.00
13968;BME280;39536;52.198;9.920;2022-12-29T04:01:28;99304.94;;;10.50;100.00
13968;BME280;39536;52.198;9.920;2022-12-29T04:03:55;99291.75;;;10.53;100.00
13968;BME280;39536;52.198;9.920;2022-12-29T04:06:21;99293.28;;;10.57;100.00
13968;BME280;39536;52.198;9.920;2022-12-29T04:08:50;99299.56;;;10.53;100.00
13968;BME280;39536;52.198;9.920;2022-12-29T04:11:16;99301.00;;;10.58;100.00
13968;BME280;39536;52.198;9.920;2022-12-29T04:13:43;99305.00;;;10.66;100.00
13968;BME280;39536;52.198;9.920;2022-12-29T04:16:09;99312.81;;;10.66;100.00
13968;BME280;39536;52.198;9.920;2022-12-29T04:18:36;99305.66;;;10.69;100.00
13968;BME280;39536;52.198;9.920;2022-12-29T04:21:03;99312.72;;;10.67;100.00
13968;BME280;39536;52.198;9.920;2022-12-29T04:23:30;99315.84;;;10.74;100.00
13968;BME280;39536;52.198;9.920;2022-12-29T04:25:58;99300.88;;;10.77;100.00
13968;BME280;39536;52.198;9.920;2022-12-29T04:28:25;99299.88;;;10.80;100.00
13968;BME280;39536;52.198;9.920;2022-12-29T04:30:52;99307.47;;;10.84;100.00
13968;BME280;39536;52.198;9.920;2022-12-29T04:33:19;99299.47;;;10.88;100.00
13968;BME280;39536;52.198;9.920;2022-12-29T04:35:46;99304.94;;;10.99;100.00
13968;BME280;39536;52.198;9.920;2022-12-29T04:38:13;99302.44;;;10.97;100.00
13968;BME280;39536;52.198;9.920;2022-12-29T04:40:40;99308.31;;;11.01;100.00
13968;BME280;39536;52.198;9.920;2022-12-29T04:43:08;99301.66;;;11.11;100.00
13968;BME280;39536;52.198;9.920;2022-12-29T04:45:35;99304.44;;;11.08;100.00
13968;BME280;39536;52.198;9.920;2022-12-29T04:48:02;99304.38;;;11.09;100.00
13968;BME280;39536;52.198;9.920;2022-12-29T04:50:29;99300.22;;;11.05;100.00
13968;BME280;39536;52.198;9.920;2022-12-29T04:52:55;99296.28;;;11.14;100.00
13968;BME280;39536;52.198;9.920;2022-12-29T04:55:22;99288.41;;;11.16;100.00
13968;BME280;39536;52.198;9.920;2022-12-29T04:57:49;99288.97;;;11.21;100.00
13968;BME280;39536;52.198;9.920;2022-12-29T05:00:17;99281.25;;;11.19;100.00
13968;BME280;39536;52.198;9.920;2022-12-29T05:02:43;99287.47;;;11.17;100.00
13968;BME280;39536;52.198;9.920;2022-12-29T05:05:10;99282.84;;;11.22;100.00
13968;BME280;39536;52.198;9.920;2022-12-29T05:07:37;99274.94;;;11.23;100.00
13968;BME280;39536;52.198;9.920;2022-12-29T05:10:05;99267.22;;;11.22;100.00
13968;BME280;39536;52.198;9.920;2022-12-29T05:12:34;99271.22;;;11.27;100.00
13968;BME280;39536;52.198;9.920;2022-12-29T05:15:01;99272.81;;;11.30;100.00
13968;BME280;39536;52.198;9.920;2022-12-29T05:17:29;99267.53;;;11.31;100.00
13968;BME280;39536;52.198;9.920;2022-12-29T05:19:56;99266.75;;;11.29;100.00
13968;BME280;39536;52.198;9.920;2022-12-29T05:22:23;99268.09;;;11.37;100.00
13968;BME280;39536;52.198;9.920;2022-12-29T05:24:49;99268.63;;;11.43;100.00
13968;BME280;39536;52.198;9.920;2022-12-29T05:27:16;99269.44;;;11.44;100.00
13968;BME280;39536;52.198;9.920;2022-12-29T05:29:42;99270.19;;;11.46;100.00
13968;BME280;39536;52.198;9.920;2022-12-29T05:32:09;99269.44;;;11.44;100.00
13968;BME280;39536;52.198;9.920;2022-12-29T05:34:37;99258.25;;;11.42;100.00
13968;BME280;39536;52.198;9.920;2022-12-29T05:37:04;99267.56;;;11.46;100.00
13968;BME280;39536;52.198;9.920;2022-12-29T05:39:30;99262.97;;;11.35;100.00
13968;BME280;39536;52.198;9.920;2022-12-29T05:41:57;99254.41;;;11.33;100.00
13968;BME280;39536;52.198;9.920;2022-12-29T05:44:23;99264.16;;;11.29;100.00
13968;BME280;39536;52.198;9.920;2022-12-29T05:46:50;99256.50;;;11.26;100.00
13968;BME280;39536;52.198;9.920;2022-12-29T05:49:17;99266.88;;;11.28;100.00
13968;BME280;39536;52.198;9.920;2022-12-29T05:51:45;99263.56;;;11.24;100.00
13968;BME280;39536;52.198;9.920;2022-12-29T05:54:11;99250.22;;;11.15;100.00
13968;BME280;39536;52.198;9.920;2022-12-29T05:56:38;99255.59;;;11.12;100.00
13968;BME280;39536;52.198;9.920;2022-12-29T05:59:05;99255.41;;;11.15;100.00
13968;BME280;39536;52.198;9.920;2022-12-29T06:01:31;99260.75;;;10.97;100.00
13968;BME280;39536;52.198;9.920;2022-12-29T06:03:59;99253.50;;;11.02;100.00
13968;BME280;39536;52.198;9.920;2022-12-29T06:06:26;99256.38;;;10.98;100.00
13968;BME280;39536;52.198;9.920;2022-12-29T06:08:54;99263.41;;;10.96;100.00
13968;BME280;39536;52.198;9.920;2022-12-29T06:11:20;99255.94;;;10.90;100.00
13968;BME280;39536;52.198;9.920;2022-12-29T06:13:47;99253.59;;;10.85;100.00
13968;BME280;39536;52.198;9.920;2022-12-29T06:16:13;99252.59;;;10.88;100.00
13968;BME280;39536;52.198;9.920;2022-12-29T06:18:40;99247.38;;;10.88;100.00
13968;BME280;39536;52.198;9.920;2022-12-29T06:21:07;99238.53;;;10.90;100.00
13968;BME280;39536;52.198;9.920;2022-12-29T06:23:33;99244.94;;;10.84;100.00
13968;BME280;39536;52.198;9.920;2022-12-29T06:26:01;99226.72;;;10.84;100.00
13968;BME280;39536;52.198;9.920;2022-12-29T06:28:28;99231.75;;;10.88;100.00
13968;BME280;39536;52.198;9.920;2022-12-29T06:30:55;99223.84;;;10.89;100.00
13968;BME280;39536;52.198;9.920;2022-12-29T06:33:22;99229.53;;;10.96;100.00
13968;BME280;39536;52.198;9.920;2022-12-29T06:35:49;99225.00;;;10.99;100.00
13968;BME280;39536;52.198;9.920;2022-12-29T06:38:15;99229.22;;;11.02;100.00
13968;BME280;39536;52.198;9.920;2022-12-29T06:40:42;99226.25;;;11.08;100.00
13968;BME280;39536;52.198;9.920;2022-12-29T06:43:11;99225.91;;;11.14;100.00
13968;BME280;39536;52.198;9.920;2022-12-29T06:45:38;99222.38;;;11.15;100.00
13968;BME280;39536;52.198;9.920;2022-12-29T06:48:05;99224.97;;;11.15;100.00
13968;BME280;39536;52.198;9.920;2022-12-29T06:50:32;99224.63;;;11.21;100.00
13968;BME280;39536;52.198;9.920;2022-12-29T06:52:59;99220.78;;;11.28;100.00
13968;BME280;39536;52.198;9.920;2022-12-29T06:55:25;99217.00;;;11.34;100.00
13968;BME280;39536;52.198;9.920;2022-12-29T06:57:54;99216.88;;;11.36;100.00
13968;BME280;39536;52.198;9.920;2022-12-29T07:00:22;99201.91;;;11.39;100.00
13968;BME280;39536;52.198;9.920;2022-12-29T07:02:49;99220.91;;;11.41;100.00
13968;BME280;39536;52.198;9.920;2022-12-29T07:05:16;99224.94;;;11.47;100.00
13968;BME280;39536;52.198;9.920;2022-12-29T07:07:43;99222.91;;;11.52;100.00
13968;BME280;39536;52.198;9.920;2022-12-29T07:10:10;99231.38;;;11.55;100.00
13968;BME280;39536;52.198;9.920;2022-12-29T07:12:37;99236.81;;;11.67;100.00
13968;BME280;39536;52.198;9.920;2022-12-29T07:15:04;99223.72;;;11.68;100.00
13968;BME280;39536;52.198;9.920;2022-12-29T07:17:32;99240.09;;;11.70;100.00
13968;BME280;39536;52.198;9.920;2022-12-29T07:19:58;99213.81;;;11.73;100.00
13968;BME280;39536;52.198;9.920;2022-12-29T07:22:25;99215.72;;;11.71;100.00
13968;BME280;39536;52.198;9.920;2022-12-29T07:24:52;99205.81;;;11.76;100.00
13968;BME280;39536;52.198;9.920;2022-12-29T07:27:18;99215.53;;;11.74;100.00
13968;BME280;39536;52.198;9.920;2022-12-29T07:29:45;99214.84;;;11.71;100.00
13968;BME280;39536;52.198;9.920;2022-12-29T07:32:12;99229.31;;;11.76;100.00
13968;BME280;39536;52.198;9.920;2022-12-29T07:34:39;99242.63;;;11.72;100.00
13968;BME280;39536;52.198;9.920;2022-12-29T07:37:06;99272.06;;;11.74;100.00
13968;BME280;39536;52.198;9.920;2022-12-29T07:39:33;99255.88;;;11.83;100.00
13968;BME280;39536;52.198;9.920;2022-12-29T07:42:00;99262.31;;;11.77;100.00
13968;BME280;39536;52.198;9.920;2022-12-29T07:44:26;99276.78;;;11.67;100.00
13968;BME280;39536;52.198;9.920;2022-12-29T07:46:53;99285.91;;;11.60;100.00
13968;BME280;39536;52.198;9.920;2022-12-29T07:49:19;99287.00;;;11.56;100.00
13968;BME280;39536;52.198;9.920;2022-12-29T07:51:47;99302.72;;;11.54;100.00
13968;BME280;39536;52.198;9.920;2022-12-29T07:54:14;99298.34;;;11.55;100.00
13968;BME280;39536;52.198;9.920;2022-12-29T07:56:43;99300.72;;;11.60;100.00
13968;BME280;39536;52.198;9.920;2022-12-29T07:59:10;99311.56;;;11.52;100.00
13968;BME280;39536;52.198;9.920;2022-12-29T08:01:37;99291.81;;;11.48;100.00
13968;BME280;39536;52.198;9.920;2022-12-29T08:04:04;99285.81;;;11.46;100.00
13968;BME280;39536;52.198;9.920;2022-12-29T08:06:30;99293.34;;;11.36;100.00
13968;BME280;39536;52.198;9.920;2022-12-29T08:08:58;99301.16;;;11.20;100.00
13968;BME280;39536;52.198;9.920;2022-12-29T08:11:26;99316.41;;;11.12;100.00
13968;BME280;39536;52.198;9.920;2022-12-29T08:13:52;99315.13;;;11.03;100.00
13968;BME280;39536;52.198;9.920;2022-12-29T08:16:19;99323.44;;;10.94;100.00
13968;BME280;39536;52.198;9.920;2022-12-29T08:18:46;99320.84;;;10.94;100.00
13968;BME280;39536;52.198;9.920;2022-12-29T08:21:12;99323.59;;;10.91;100.00
13968;BME280;39536;52.198;9.920;2022-12-29T08:23:39;99325.03;;;10.97;100.00
13968;BME280;39536;52.198;9.920;2022-12-29T08:26:07;99319.84;;;10.97;100.00
13968;BME280;39536;52.198;9.920;2022-12-29T08:28:33;99318.91;;;10.98;100.00
13968;BME280;39536;52.198;9.920;2022-12-29T08:31:01;99306.53;;;11.01;100.00
13968;BME280;39536;52.198;9.920;2022-12-29T08:33:29;99302.00;;;11.05;100.00
13968;BME280;39536;52.198;9.920;2022-12-29T08:35:59;99313.03;;;11.10;100.00
13968;BME280;39536;52.198;9.920;2022-12-29T08:38:27;99302.09;;;11.19;100.00
13968;BME280;39536;52.198;9.920;2022-12-29T08:40:54;99317.22;;;11.28;100.00
13968;BME280;39536;52.198;9.920;2022-12-29T08:43:22;99306.28;;;11.38;100.00
13968;BME280;39536;52.198;9.920;2022-12-29T08:45:48;99317.28;;;11.43;100.00
13968;BME280;39536;52.198;9.920;2022-12-29T08:48:15;99324.38;;;11.41;100.00
13968;BME280;39536;52.198;9.920;2022-12-29T08:50:45;99339.91;;;11.42;100.00
13968;BME280;39536;52.198;9.920;2022-12-29T08:53:11;99367.16;;;11.21;100.00
13968;BME280;39536;52.198;9.920;2022-12-29T08:55:38;99375.22;;;11.00;100.00
13968;BME280;39536;52.198;9.920;2022-12-29T08:58:04;99395.22;;;10.49;100.00
13968;BME280;39536;52.198;9.920;2022-12-29T09:00:32;99407.91;;;10.21;100.00
13968;BME280;39536;52.198;9.920;2022-12-29T09:02:59;99411.53;;;9.82;100.00
13968;BME280;39536;52.198;9.920;2022-12-29T09:05:26;99391.31;;;9.87;100.00
13968;BME280;39536;52.198;9.920;2022-12-29T09:07:52;99391.50;;;10.01;100.00
13968;BME280;39536;52.198;9.920;2022-12-29T09:10:19;99398.09;;;10.08;100.00
13968;BME280;39536;52.198;9.920;2022-12-29T09:12:46;99396.66;;;10.20;100.00
13968;BME280;39536;52.198;9.920;2022-12-29T09:15:12;99401.13;;;10.35;100.00
13968;BME280;39536;52.198;9.920;2022-12-29T09:17:42;99389.41;;;10.44;100.00
13968;BME280;39536;52.198;9.920;2022-12-29T09:20:09;99398.22;;;10.42;100.00
13968;BME280;39536;52.198;9.920;2022-12-29T09:22:36;99383.22;;;10.47;100.00
13968;BME280;39536;52.198;9.920;2022-12-29T09:25:04;99397.13;;;10.46;100.00
13968;BME280;39536;52.198;9.920;2022-12-29T09:27:30;99408.78;;;10.38;100.00
13968;BME280;39536;52.198;9.920;2022-12-29T09:29:57;99396.06;;;10.50;100.00
13968;BME280;39536;52.198;9.920;2022-12-29T09:32:24;99386.72;;;10.46;100.00
13968;BME280;39536;52.198;9.920;2022-12-29T09:34:51;99392.88;;;10.45;100.00
13968;BME280;39536;52.198;9.920;2022-12-29T09:37:18;99396.25;;;10.47;100.00
13968;BME280;39536;52.198;9.920;2022-12-29T09:39:45;99393.22;;;10.54;100.00
13968;BME280;39536;52.198;9.920;2022-12-29T09:42:16;99373.25;;;10.55;100.00
13968;BME280;39536;52.198;9.920;2022-12-29T09:44:52;99400.97;;;10.38;100.00
13968;BME280;39536;52.198;9.920;2022-12-29T09:47:23;99399.47;;;10.34;100.00
13968;BME280;39536;52.198;9.920;2022-12-29T09:49:55;99401.84;;;10.20;100.00
13968;BME280;39536;52.198;9.920;2022-12-29T09:52:23;99403.31;;;10.26;100.00
13968;BME280;39536;52.198;9.920;2022-12-29T09:54:56;99402.81;;;10.36;100.00
13968;BME280;39536;52.198;9.920;2022-12-29T09:57:25;99407.72;;;10.43;100.00
13968;BME280;39536;52.198;9.920;2022-12-29T09:59:55;99402.50;;;10.43;100.00
13968;BME280;39536;52.198;9.920;2022-12-29T10:02:32;99404.44;;;10.56;100.00
13968;BME280;39536;52.198;9.920;2022-12-29T10:05:02;99395.91;;;10.70;100.00
13968;BME280;39536;52.198;9.920;2022-12-29T10:07:37;99389.22;;;10.82;100.00
13968;BME280;39536;52.198;9.920;2022-12-29T10:10:21;99381.34;;;10.99;100.00
13968;BME280;39536;52.198;9.920;2022-12-29T10:13:00;99387.59;;;11.13;100.00
13968;BME280;39536;52.198;9.920;2022-12-29T10:15:46;99376.91;;;11.17;100.00
13968;BME280;39536;52.198;9.920;2022-12-29T10:18:28;99383.72;;;11.20;100.00
13968;BME280;39536;52.198;9.920;2022-12-29T10:21:06;99373.59;;;11.31;100.00
13968;BME280;39536;52.198;9.920;2022-12-29T10:23:39;99369.78;;;11.37;100.00
13968;BME280;39536;52.198;9.920;2022-12-29T10:26:10;99360.72;;;11.44;100.00
13968;BME280;39536;52.198;9.920;2022-12-29T10:28:42;99377.94;;;11.46;100.00
13968;BME280;39536;52.198;9.920;2022-12-29T10:31:14;99380.31;;;11.51;100.00
13968;BME280;39536;52.198;9.920;2022-12-29T10:33:42;99384.19;;;11.60;100.00
13968;BME280;39536;52.198;9.920;2022-12-29T10:36:16;99384.69;;;11.66;100.00
13968;BME280;39536;52.198;9.920;2022-12-29T10:38:51;99389.13;;;11.64;100.00
13968;BME280;39536;52.198;9.920;2022-12-29T10:41:23;99378.69;;;11.64;100.00
13968;BME280;39536;52.198;9.920;2022-12-29T10:43:54;99381.22;;;11.66;100.00
13968;BME280;39536;52.198;9.920;2022-12-29T10:46:25;99374.91;;;11.70;100.00
13968;BME280;39536;52.198;9.920;2022-12-29T10:48:54;99358.06;;;11.75;100.00
13968;BME280;39536;52.198;9.920;2022-12-29T10:51:24;99364.22;;;11.74;100.00
13968;BME280;39536;52.198;9.920;2022-12-29T10:53:54;99361.09;;;11.68;100.00
13968;BME280;39536;52.198;9.920;2022-12-29T10:56:29;99358.06;;;11.75;100.00
13968;BME280;39536;52.198;9.920;2022-12-29T10:59:01;99359.34;;;11.68;100.00
13968;BME280;39536;52.198;9.920;2022-12-29T11:01:36;99365.41;;;11.69;100.00
13968;BME280;39536;52.198;9.920;2022-12-29T11:04:07;99372.75;;;11.62;100.00
13968;BME280;39536;52.198;9.920;2022-12-29T11:06:43;99380.56;;;11.62;100.00
13968;BME280;39536;52.198;9.920;2022-12-29T11:09:12;99389.72;;;11.53;100.00
13968;BME280;39536;52.198;9.920;2022-12-29T11:11:40;99395.00;;;11.52;100.00
13968;BME280;39536;52.198;9.920;2022-12-29T11:14:11;99409.00;;;11.51;100.00
13968;BME280;39536;52.198;9.920;2022-12-29T11:16:39;99397.06;;;11.47;100.00
13968;BME280;39536;52.198;9.920;2022-12-29T11:19:19;99411.44;;;11.54;100.00
13968;BME280;39536;52.198;9.920;2022-12-29T11:21:47;99390.81;;;11.49;100.00
13968;BME280;39536;52.198;9.920;2022-12-29T11:24:20;99396.63;;;11.54;100.00
13968;BME280;39536;52.198;9.920;2022-12-29T11:26:49;99400.72;;;11.59;100.00
13968;BME280;39536;52.198;9.920;2022-12-29T11:29:24;99399.66;;;11.63;100.00
13968;BME280;39536;52.198;9.920;2022-12-29T11:31:52;99406.53;;;11.64;100.00
13968;BME280;39536;52.198;9.920;2022-12-29T11:34:21;99406.44;;;11.49;100.00
13968;BME280;39536;52.198;9.920;2022-12-29T11:36:51;99406.44;;;11.49;100.00
13968;BME280;39536;52.198;9.920;2022-12-29T11:39:28;99385.00;;;11.44;100.00
13968;BME280;39536;52.198;9.920;2022-12-29T11:41:57;99428.69;;;11.41;100.00
13968;BME280;39536;52.198;9.920;2022-12-29T11:44:24;99436.72;;;11.36;100.00
13968;BME280;39536;52.198;9.920;2022-12-29T11:46:52;99435.88;;;11.36;100.00
13968;BME280;39536;52.198;9.920;2022-12-29T11:49:22;99426.47;;;11.33;100.00
13968;BME280;39536;52.198;9.920;2022-12-29T11:51:52;99434.28;;;11.33;100.00
13968;BME280;39536;52.198;9.920;2022-12-29T11:54:23;99433.88;;;11.41;100.00
13968;BME280;39536;52.198;9.920;2022-12-29T11:56:51;99431.84;;;11.30;100.00
13968;BME280;39536;52.198;9.920;2022-12-29T11:59:35;99436.56;;;11.39;100.00
13968;BME280;39536;52.198;9.920;2022-12-29T12:02:15;99433.91;;;11.56;100.00
13968;BME280;39536;52.198;9.920;2022-12-29T12:04:47;99431.63;;;11.66;100.00
13968;BME280;39536;52.198;9.920;2022-12-29T12:07:19;99436.16;;;11.63;100.00
13968;BME280;39536;52.198;9.920;2022-12-29T12:09:51;99434.63;;;11.59;100.00
13968;BME280;39536;52.198;9.920;2022-12-29T12:12:24;99435.50;;;11.59;100.00
13968;BME280;39536;52.198;9.920;2022-12-29T12:14:55;99431.19;;;11.58;100.00
13968;BME280;39536;52.198;9.920;2022-12-29T12:17:29;99447.94;;;11.54;100.00
13968;BME280;39536;52.198;9.920;2022-12-29T12:20:09;99434.22;;;11.50;100.00
13968;BME280;39536;52.198;9.920;2022-12-29T12:22:45;99424.28;;;11.41;100.00
13968;BME280;39536;52.198;9.920;2022-12-29T12:25:17;99434.88;;;11.38;100.00
13968;BME280;39536;52.198;9.920;2022-12-29T12:27:51;99430.50;;;11.39;100.00
13968;BME280;39536;52.198;9.920;2022-12-29T12:30:20;99428.34;;;11.31;100.00
13968;BME280;39536;52.198;9.920;2022-12-29T12:32:51;99437.06;;;11.30;100.00
13968;BME280;39536;52.198;9.920;2022-12-29T12:35:34;99423.19;;;11.29;100.00
13968;BME280;39536;52.198;9.920;2022-12-29T12:38:22;99426.56;;;11.31;100.00
13968;BME280;39536;52.198;9.920;2022-12-29T12:40:59;99426.41;;;11.35;100.00
13968;BME280;39536;52.198;9.920;2022-12-29T12:43:39;99423.84;;;11.33;100.00
13968;BME280;39536;52.198;9.920;2022-12-29T12:46:23;99426.78;;;11.27;100.00
13968;BME280;39536;52.198;9.920;2022-12-29T12:49:05;99433.78;;;11.26;100.00
13968;BME280;39536;52.198;9.920;2022-12-29T12:51:48;99432.16;;;11.24;100.00
13968;BME280;39536;52.198;9.920;2022-12-29T12:54:30;99437.31;;;11.25;100.00
13968;BME280;39536;52.198;9.920;2022-12-29T12:57:10;99430.06;;;11.30;100.00
13968;BME280;39536;52.198;9.920;2022-12-29T12:59:49;99426.94;;;11.24;100.00
13968;BME280;39536;52.198;9.920;2022-12-29T13:02:29;99434.59;;;11.27;100.00
13968;BME280;39536;52.198;9.920;2022-12-29T13:05:20;99418.97;;;11.27;100.00
13968;BME280;39536;52.198;9.920;2022-12-29T13:07:58;99439.66;;;11.30;100.00
13968;BME280;39536;52.198;9.920;2022-12-29T13:10:40;99443.19;;;11.29;100.00